Time;durP1;ratioP1;P1;durP2;ratioP2;P2;SDS_P1;SDS_P2;PMS_P1;PMS_P2;Temp;Humidity;BMP_temperature;BMP_pressure;BME280_temperature;BME280_humidity;BME280_pressure;Samples;Min_cycle;Max_cycle;Signal;HPM_P1;HPM_P2
2022/06/23 00:04:38;;;;;;;8.85;5.38;;;;;;;13.14;100.00;101438.84;10288527;28;20045;-84
2022/06/23 00:09:40;;;;;;;8.48;6.22;;;;;;;13.09;100.00;101424.97;10279959;28;20039;-84
2022/06/23 00:14:41;;;;;;;9.63;6.50;;;;;;;13.08;100.00;101429.69;10263900;28;20066;-84
2022/06/23 00:19:41;;;;;;;12.02;7.57;;;;;;;12.91;100.00;101412.31;10263590;28;20086;-85
2022/06/23 00:24:42;;;;;;;14.40;7.57;;;;;;;12.91;100.00;101423.34;10263504;28;20027;-83
2022/06/23 00:29:44;;;;;;;12.52;7.85;;;;;;;12.86;100.00;101428.84;10278261;28;20039;-83
2022/06/23 00:35:01;;;;;;;10.70;7.53;;;;;;;12.79;100.00;101439.22;10240048;28;20039;-80
2022/06/23 00:40:06;;;;;;;13.32;8.90;;;;;;;12.72;100.00;101428.38;10272269;28;20038;-81
2022/06/23 00:45:18;;;;;;;12.27;8.10;;;;;;;12.65;100.00;101428.56;10297432;28;20119;-78
2022/06/23 00:50:38;;;;;;;12.27;8.13;;;;;;;12.58;100.00;101429.81;10289716;28;20045;-79
2022/06/23 00:55:57;;;;;;;12.65;7.72;;;;;;;12.51;100.00;101427.25;10298305;28;20045;-80
2022/06/23 01:01:11;;;;;;;15.27;7.88;;;;;;;12.15;100.00;101376.16;10247776;28;20050;-79
2022/06/23 01:06:19;;;;;;;11.63;7.97;;;;;;;12.42;100.00;101417.69;10224633;28;20384;-80
2022/06/23 01:11:33;;;;;;;12.95;8.35;;;;;;;12.31;100.00;101406.50;10252647;28;20039;-80
2022/06/23 01:16:42;;;;;;;14.38;8.63;;;;;;;12.31;100.00;101417.53;10266327;28;20129;-79
2022/06/23 01:21:44;;;;;;;16.98;8.48;;;;;;;12.27;100.00;101421.91;10273628;28;20043;-78
2022/06/23 01:27:19;;;;;;;10.88;7.47;;;;;;;12.18;100.00;101428.94;10278414;28;20089;-80
2022/06/23 01:32:25;;;;;;;11.75;7.68;;;;;;;12.14;100.00;101424.19;10291375;28;20090;-79
2022/06/23 01:37:33;;;;;;;12.53;8.23;;;;;;;12.09;100.00;101422.16;10275868;28;20050;-79
2022/06/23 01:43:10;;;;;;;14.48;8.50;;;;;;;11.99;100.00;101413.72;10288658;28;20045;-80
2022/06/23 01:48:17;;;;;;;14.75;8.70;;;;;;;12.04;100.00;101422.09;10281640;28;20086;-80
2022/06/23 01:53:17;;;;;;;15.90;10.20;;;;;;;12.03;100.00;101421.25;10282528;28;20042;-79
2022/06/23 01:58:18;;;;;;;16.30;9.40;;;;;;;11.89;100.00;101395.91;10284860;28;20046;-80
2022/06/23 02:03:23;;;;;;;13.75;9.52;;;;;;;12.00;100.00;101407.94;10268261;28;20481;-79
2022/06/23 02:08:55;;;;;;;13.70;9.48;;;;;;;11.99;100.00;101402.66;10255279;28;20041;-77
2022/06/23 02:13:55;;;;;;;15.95;10.32;;;;;;;11.94;100.00;101394.31;10291899;28;20042;-78
2022/06/23 02:19:05;;;;;;;18.55;10.27;;;;;;;11.88;100.00;101385.94;10291064;28;20035;-77
2022/06/23 02:24:07;;;;;;;15.43;9.68;;;;;;;11.88;100.00;101388.69;10302677;28;20041;-77
2022/06/23 02:29:19;;;;;;;18.42;11.45;;;;;;;11.91;100.00;101398.44;10275124;28;20051;-77
2022/06/23 02:34:51;;;;;;;14.85;9.68;;;;;;;11.89;100.00;101395.91;10288353;28;20044;-77
2022/06/23 02:39:54;;;;;;;17.40;11.23;;;;;;;11.87;100.00;101383.44;10252191;28;20039;-77
2022/06/23 02:45:14;;;;;;;19.20;10.75;;;;;;;11.97;100.00;101382.78;10300923;28;20030;-78
2022/06/23 02:50:36;;;;;;;15.07;10.23;;;;;;;12.00;100.00;101379.53;10292080;28;20434;-77
2022/06/23 02:55:59;;;;;;;17.20;10.70;;;;;;;12.04;100.00;101383.44;10300485;28;20454;-77
2022/06/23 03:01:01;;;;;;;17.80;11.25;;;;;;;12.10;100.00;101387.97;10300382;28;20046;-77
2022/06/23 03:06:03;;;;;;;22.73;12.02;;;;;;;12.16;100.00;101378.69;10286876;28;20038;-77
2022/06/23 03:16:49;;;;;;;20.83;12.82;;;;;;;12.17;100.00;101382.25;10282412;28;20074;-78
2022/06/23 03:21:53;;;;;;;21.40;11.77;;;;;;;12.24;100.00;101380.19;10267855;28;20169;-79
2022/06/23 03:27:27;;;;;;;18.95;12.75;;;;;;;12.25;100.00;101374.38;10266629;28;20038;-79
2022/06/23 03:32:32;;;;;;;21.75;11.48;;;;;;;12.28;100.00;101375.81;10282582;28;20038;-77
2022/06/23 03:38:03;;;;;;;23.13;12.70;;;;;;;12.28;100.00;101384.94;10261789;28;20044;-78
2022/06/23 03:43:28;;;;;;;20.75;11.88;;;;;;;12.32;100.00;101380.59;10261679;28;20148;-78
2022/06/23 03:48:32;;;;;;;19.60;12.05;;;;;;;12.05;100.00;101332.69;10262824;28;20110;-77
2022/06/23 03:53:40;;;;;;;20.70;11.88;;;;;;;12.31;100.00;101370.59;10226788;28;20042;-78
2022/06/23 03:59:05;;;;;;;16.10;10.90;;;;;;;12.42;100.00;101390.09;10210036;28;20043;-78
2022/06/23 04:04:17;;;;;;;18.70;11.75;;;;;;;12.49;100.00;101385.22;10167476;28;20052;-79
2022/06/23 04:09:27;;;;;;;16.10;10.98;;;;;;;12.53;100.00;101391.91;10211891;28;20575;-79
2022/06/23 04:14:38;;;;;;;21.58;11.88;;;;;;;12.56;100.00;101385.88;10261846;28;20085;-79
2022/06/23 04:19:46;;;;;;;18.52;11.32;;;;;;;12.51;100.00;101388.56;10204246;28;20062;-79
2022/06/23 04:24:47;;;;;;;20.85;11.68;;;;;;;12.56;100.00;101372.06;10261646;28;20054;-78
2022/06/23 04:29:50;;;;;;;20.00;11.70;;;;;;;12.60;100.00;101364.09;10264474;28;20053;-77
2022/06/23 04:35:07;;;;;;;19.45;12.70;;;;;;;12.69;100.00;101365.31;10281580;28;20050;-77
2022/06/23 04:40:45;;;;;;;24.33;13.30;;;;;;;12.75;100.00;101366.22;10281805;28;20438;-78
2022/06/23 04:46:01;;;;;;;;;;;;;;;12.81;100.00;101362.44;10286675;28;20353;-79
2022/06/23 04:51:15;;;;;;;23.33;14.55;;;;;;;12.87;100.00;101353.94;10263887;28;19929;-79
2022/06/23 04:56:16;;;;;;;23.77;15.75;;;;;;;12.95;100.00;101366.47;10247027;28;20214;-78
2022/06/23 05:01:19;;;;;;;25.58;14.80;;;;;;;12.91;100.00;101332.16;10294205;28;20105;-79
2022/06/23 05:06:31;;;;;;;25.90;14.15;;;;;;;13.07;100.00;101353.34;10290093;28;20043;-79
2022/06/23 05:11:36;;;;;;;23.92;14.32;;;;;;;13.17;100.00;101357.31;10288215;28;20062;-79
2022/06/23 05:16:40;;;;;;;24.42;14.38;;;;;;;13.22;100.00;101343.56;10254890;28;20046;-79
2022/06/23 05:21:54;;;;;;;25.65;14.93;;;;;;;13.34;100.00;101349.81;10276523;28;20050;-78
2022/06/23 05:27:24;;;;;;;26.13;15.15;;;;;;;13.46;100.00;101347.72;10275745;28;20054;-79
2022/06/23 05:32:34;;;;;;;27.63;17.58;;;;;;;13.65;100.00;101352.84;10266000;28;20042;-80
2022/06/23 05:37:47;;;;;;;26.70;17.60;;;;;;;13.90;100.00;101360.53;10291794;28;20119;-79
2022/06/23 05:42:49;;;;;;;19.65;14.73;;;;;;;14.09;100.00;101359.00;10259645;28;20054;-78
2022/06/23 05:47:50;;;;;;;20.67;14.30;;;;;;;14.26;100.00;101353.31;10273587;28;20051;-78
2022/06/23 05:53:03;;;;;;;25.05;15.95;;;;;;;14.53;100.00;101360.66;10274818;28;20039;-79
2022/06/23 05:58:13;;;;;;;25.77;17.15;;;;;;;14.88;100.00;101364.72;10256152;28;20035;-79
2022/06/23 06:03:16;;;;;;;21.75;15.75;;;;;;;15.32;100.00;101356.00;10293003;28;20055;-79
2022/06/23 06:08:18;;;;;;;17.35;12.93;;;;;;;15.77;100.00;101359.94;10260978;28;20039;-79
2022/06/23 06:13:22;;;;;;;13.73;9.70;;;;;;;16.20;100.00;101351.31;10235193;28;20036;-79
2022/06/23 06:18:51;;;;;;;14.27;10.40;;;;;;;16.73;100.00;101346.97;10211405;28;20047;-79
2022/06/23 06:23:59;;;;;;;14.27;10.80;;;;;;;17.05;100.00;101311.53;10290469;28;20043;-79
2022/06/23 06:29:10;;;;;;;13.70;9.30;;;;;;;17.52;100.00;101322.06;10275351;28;20059;-79
2022/06/23 06:34:17;;;;;;;14.20;9.10;;;;;;;17.81;100.00;101312.91;10259336;28;20038;-80
2022/06/23 06:39:22;;;;;;;13.60;9.75;;;;;;;18.22;100.00;101332.03;10268285;28;20063;-81
2022/06/23 06:44:23;;;;;;;13.82;9.98;;;;;;;18.55;100.00;101323.88;10249299;28;20574;-79
2022/06/23 06:49:24;;;;;;;13.43;10.90;;;;;;;18.70;100.00;101329.25;10219135;28;20043;-79
2022/06/23 06:54:33;;;;;;;16.88;10.23;;;;;;;18.97;100.00;101322.22;10218890;28;20067;-80
2022/06/23 06:59:33;;;;;;;15.25;9.40;;;;;;;19.34;100.00;101337.34;10228144;28;20062;-79
2022/06/23 07:04:46;;;;;;;12.23;7.30;;;;;;;19.64;100.00;101343.59;10277616;28;20050;-79
2022/06/23 07:09:58;;;;;;;11.20;8.73;;;;;;;19.82;100.00;101316.75;10280643;28;20054;-79
2022/06/23 07:15:05;;;;;;;10.15;7.60;;;;;;;20.19;100.00;101313.00;10259926;28;20054;-79
2022/06/23 07:20:33;;;;;;;11.77;6.70;;;;;;;20.27;100.00;101270.34;10272749;28;20038;-79
2022/06/23 07:25:35;;;;;;;9.07;7.65;;;;;;;20.74;100.00;101285.06;10261476;28;20418;-78
2022/06/23 07:30:44;;;;;;;9.98;7.85;;;;;;;21.16;100.00;101299.78;10243933;28;20042;-79
2022/06/23 07:35:49;;;;;;;16.15;8.25;;;;;;;21.44;100.00;101308.13;10245993;28;20091;-79
2022/06/23 07:41:07;;;;;;;10.38;5.90;;;;;;;21.67;100.00;101310.94;10262412;28;20057;-79
2022/06/23 07:46:07;;;;;;;8.48;5.93;;;;;;;21.96;100.00;101308.47;10238740;28;20058;-79
2022/06/23 07:51:09;;;;;;;8.95;5.68;;;;;;;22.16;100.00;101300.69;10226169;28;20082;-79
2022/06/23 07:56:15;;;;;;;6.97;5.57;;;;;;;22.24;100.00;101276.63;10243222;28;20094;-79
2022/06/23 08:01:24;;;;;;;10.90;5.40;;;;;;;22.60;100.00;101293.28;10258649;28;20049;-79
2022/06/23 08:06:24;;;;;;;6.65;5.18;;;;;;;22.81;100.00;101287.03;10240739;28;20128;-79
2022/06/23 08:16:50;;;;;;;8.98;4.05;;;;;;;23.26;99.60;101264.31;10274238;28;20070;-79
2022/06/23 08:21:52;;;;;;;8.93;5.07;;;;;;;23.45;100.00;101259.16;10272920;28;20035;-78
2022/06/23 08:27:01;;;;;;;8.68;4.50;;;;;;;23.61;98.52;101269.91;10257207;28;20104;-79
2022/06/23 08:32:02;;;;;;;6.78;3.63;;;;;;;23.62;98.58;101233.00;10257251;28;20177;-79
2022/06/23 08:37:09;;;;;;;13.00;4.93;;;;;;;24.09;97.35;101249.09;10259709;28;20051;-79
2022/06/23 08:42:16;;;;;;;6.90;3.75;;;;;;;24.36;96.79;101251.44;10261679;28;20077;-78
2022/06/23 08:47:36;;;;;;;;;;;;;;;24.55;91.71;101230.50;10274492;28;20102;-78
2022/06/23 08:52:43;;;;;;;5.63;3.50;;;;;;;24.70;88.02;101221.50;10304036;28;19985;-79
2022/06/23 08:58:05;;;;;;;6.32;3.20;;;;;;;24.94;87.00;101208.72;10293375;28;20145;-79
2022/06/23 09:03:10;;;;;;;6.95;3.58;;;;;;;25.20;86.80;101218.91;10278178;28;20042;-78
2022/06/23 09:08:23;;;;;;;6.03;3.00;;;;;;;25.42;85.88;101212.91;10290696;28;20027;-80
2022/06/23 09:13:49;;;;;;;7.43;3.90;;;;;;;25.56;85.06;101209.78;10291885;28;20042;-79
2022/06/23 09:18:58;;;;;;;9.80;3.58;;;;;;;25.80;83.04;101200.56;10294034;28;20039;-79
2022/06/23 09:24:01;;;;;;;6.90;3.22;;;;;;;26.12;81.18;101198.03;10294442;28;20049;-78
2022/06/23 09:29:06;;;;;;;4.82;3.00;;;;;;;26.32;80.06;101202.72;10293031;28;20082;-79
2022/06/23 09:34:33;;;;;;;5.27;3.37;;;;;;;26.38;76.84;101192.84;10291468;28;20046;-80
2022/06/23 09:40:08;;;;;;;6.90;3.28;;;;;;;26.61;76.43;101195.19;10262873;28;20047;-80
2022/06/23 09:45:23;;;;;;;6.07;3.40;;;;;;;26.91;74.50;101172.25;10291658;28;20141;-79
2022/06/23 09:50:30;;;;;;;10.13;2.90;;;;;;;27.15;73.04;101177.00;10293747;28;20043;-79
2022/06/23 09:55:59;;;;;;;8.20;3.60;;;;;;;27.47;71.01;101160.97;10293650;28;20039;-79
2022/06/23 10:01:16;;;;;;;7.05;2.80;;;;;;;27.58;68.66;101136.59;10275790;28;20098;-79
2022/06/23 10:06:39;;;;;;;6.15;3.28;;;;;;;27.69;68.87;101158.69;10289026;28;20046;-79
2022/06/23 10:12:12;;;;;;;8.98;2.63;;;;;;;27.85;67.23;101155.88;10290854;28;20469;-79
2022/06/23 10:17:49;;;;;;;5.68;2.35;;;;;;;27.96;64.43;101157.78;10286977;28;20073;-80
2022/06/23 10:23:09;;;;;;;6.47;2.30;;;;;;;28.02;64.79;101138.53;10274177;28;20129;-80
2022/06/23 10:28:23;;;;;;;4.10;2.60;;;;;;;28.37;62.67;101144.19;10276806;28;20074;-79
2022/06/23 10:33:37;;;;;;;6.28;2.28;;;;;;;28.66;62.36;101133.53;10270175;28;20054;-79
2022/06/23 10:38:56;;;;;;;4.68;2.17;;;;;;;28.58;60.19;101069.41;10239661;28;20111;-79
2022/06/23 10:44:34;;;;;;;4.13;1.95;;;;;;;28.80;59.86;101118.03;10264157;28;20510;-80
2022/06/23 10:49:58;;;;;;;5.88;2.10;;;;;;;29.06;60.64;101112.47;10277773;28;20046;-81
2022/06/23 10:55:25;;;;;;;4.57;2.08;;;;;;;29.21;58.66;101076.75;10276548;28;20039;-80
2022/06/23 11:00:44;;;;;;;4.43;1.77;;;;;;;29.60;59.01;101101.31;10276251;28;20047;-80
2022/06/23 11:06:00;;;;;;;6.68;2.03;;;;;;;29.43;58.87;101024.03;10281222;28;20047;-80
2022/06/23 11:11:12;;;;;;;5.65;1.67;;;;;;;29.92;56.17;101077.13;10311634;28;20057;-79
2022/06/23 11:16:22;;;;;;;3.38;1.95;;;;;;;29.97;55.90;101076.84;10298639;28;20598;-80
2022/06/23 11:21:47;;;;;;;4.05;1.77;;;;;;;30.24;55.71;101071.09;10284511;28;20119;-80
2022/06/23 11:27:18;;;;;;;5.13;1.83;;;;;;;30.52;53.68;101064.19;10276419;28;20058;-80
2022/06/23 11:32:28;;;;;;;9.32;2.30;;;;;;;30.84;53.50;101055.22;10275399;28;20058;-80
2022/06/23 11:37:50;;;;;;;3.28;2.25;;;;;;;30.96;52.65;101043.59;10263390;28;20107;-79
2022/06/23 11:43:11;;;;;;;3.92;1.85;;;;;;;30.74;52.52;101040.53;10276828;28;20115;-78
2022/06/23 11:48:28;;;;;;;4.05;1.92;;;;;;;31.04;50.50;101024.59;10261675;28;20122;-79
2022/06/23 11:53:45;;;;;;;3.60;1.52;;;;;;;31.58;47.38;101014.50;10281997;28;20051;-80
2022/06/23 11:58:59;;;;;;;5.22;1.35;;;;;;;32.12;45.45;100990.06;10274143;28;20035;-79
2022/06/23 12:04:34;;;;;;;1.42;1.15;;;;;;;32.66;45.98;100998.00;10247029;28;20047;-80
2022/06/23 12:09:56;;;;;;;5.07;1.50;;;;;;;33.27;44.37;100998.09;10273288;28;20081;-80
2022/06/23 12:14:56;;;;;;;1.67;1.17;;;;;;;33.27;44.20;100964.69;10274327;28;20047;-79
2022/06/23 12:20:25;;;;;;;3.45;1.63;;;;;;;33.49;41.57;100971.19;10282955;28;20074;-80
2022/06/23 12:25:55;;;;;;;4.60;1.60;;;;;;;34.31;41.71;100978.72;10278804;28;20388;-80
2022/06/23 12:31:17;;;;;;;2.28;1.40;;;;;;;34.69;38.93;100947.50;10258188;28;20043;-80
2022/06/23 12:36:34;;;;;;;4.45;1.60;;;;;;;34.77;40.14;100951.13;10275713;28;20046;-80
2022/06/23 12:42:02;;;;;;;5.25;1.63;;;;;;;35.00;39.41;100964.84;10253634;28;20050;-81
2022/06/23 12:47:09;;;;;;;3.10;1.90;;;;;;;35.56;39.32;100959.84;10290185;28;20054;-81
2022/06/23 12:52:28;;;;;;;2.15;1.40;;;;;;;35.58;37.97;100950.81;10285418;28;20056;-81
2022/06/23 12:57:37;;;;;;;3.20;1.55;;;;;;;35.68;37.92;100937.63;10305478;28;20058;-81
2022/06/23 13:02:43;;;;;;;2.08;1.23;;;;;;;35.45;37.20;100926.81;10277129;28;20050;-80
2022/06/23 13:07:48;;;;;;;4.55;1.58;;;;;;;35.52;37.63;100926.75;10295314;28;20046;-80
2022/06/23 13:13:11;;;;;;;6.00;1.73;;;;;;;35.62;38.35;100925.84;10274623;28;20047;-80
2022/06/23 13:18:17;;;;;;;4.00;1.90;;;;;;;36.08;37.67;100918.72;10279870;28;20615;-78
2022/06/23 13:23:20;;;;;;;1.98;1.70;;;;;;;35.78;37.05;100905.19;10271063;28;20058;-80
2022/06/23 13:28:27;;;;;;;5.78;1.60;;;;;;;35.28;36.46;100900.00;10288328;28;20045;-79
2022/06/23 13:33:38;;;;;;;4.75;1.70;;;;;;;35.51;38.22;100903.03;10292763;28;20427;-80
2022/06/23 13:38:47;;;;;;;5.10;1.70;;;;;;;36.26;37.62;100900.50;10244455;28;20111;-80
2022/06/23 13:44:12;;;;;;;3.75;1.58;;;;;;;36.36;35.59;100883.16;10290312;28;20039;-80
2022/06/23 13:49:23;;;;;;;2.87;2.00;;;;;;;36.13;37.00;100881.00;10291168;28;20038;-80
2022/06/23 13:54:38;;;;;;;4.65;2.20;;;;;;;36.33;34.76;100872.53;10291853;28;20350;-79
2022/06/23 13:59:59;;;;;;;3.33;1.80;;;;;;;35.41;36.51;100786.63;10287058;28;20038;-80
2022/06/23 14:05:23;;;;;;;2.72;2.10;;;;;;;36.21;36.05;100876.00;10274882;28;20058;-79
2022/06/23 14:10:38;;;;;;;4.10;2.27;;;;;;;36.65;35.55;100871.28;10290264;28;20106;-81
2022/06/23 14:15:53;;;;;;;3.85;2.25;;;;;;;36.57;34.83;100864.00;10295825;28;20038;-80
2022/06/23 14:21:21;;;;;;;5.28;2.13;;;;;;;37.01;35.02;100852.63;10294008;28;20074;-80
2022/06/23 14:26:41;;;;;;;5.22;2.28;;;;;;;36.83;34.98;100829.97;10297830;28;20411;-80
2022/06/23 14:31:53;;;;;;;4.85;2.30;;;;;;;37.23;33.64;100830.06;10300001;28;20046;-79
2022/06/23 14:37:30;;;;;;;3.53;1.77;;;;;;;37.33;32.81;100815.53;10282770;28;20069;-78
2022/06/23 14:42:31;;;;;;;5.40;1.55;;;;;;;37.20;34.06;100819.47;10277167;28;20098;-78
2022/06/23 14:47:50;;;;;;;5.00;2.03;;;;;;;37.09;34.81;100829.06;10298323;28;20098;-78
2022/06/23 14:53:13;;;;;;;2.55;1.55;;;;;;;37.44;33.51;100818.16;10292863;28;20054;-78
2022/06/23 14:58:32;;;;;;;8.63;2.10;;;;;;;37.66;33.13;100807.03;10277950;28;20050;-77
2022/06/23 15:03:58;;;;;;;6.10;1.80;;;;;;;37.54;32.01;100796.19;10277246;28;20067;-79
2022/06/23 15:09:18;;;;;;;4.63;1.90;;;;;;;37.30;32.26;100801.22;10276904;28;20053;-79
2022/06/23 15:14:29;;;;;;;8.88;2.00;;;;;;;37.55;33.35;100806.44;10270506;28;20039;-78
2022/06/23 15:19:46;;;;;;;7.10;2.00;;;;;;;37.92;31.68;100790.06;10277487;28;20164;-78
2022/06/23 15:25:22;;;;;;;6.10;1.88;;;;;;;38.03;31.33;100775.44;10284267;28;20456;-78
2022/06/23 15:30:40;;;;;;;8.00;2.22;;;;;;;38.58;30.63;100767.94;10275263;28;20051;-79
2022/06/23 15:35:43;;;;;;;7.18;1.90;;;;;;;38.41;29.62;100757.66;10264583;28;20057;-78
2022/06/23 15:41:11;;;;;;;4.00;1.58;;;;;;;38.63;30.00;100752.19;10292980;28;20042;-77
2022/06/23 15:46:20;;;;;;;5.25;2.40;;;;;;;39.04;30.88;100760.13;10293727;28;20074;-79
2022/06/23 15:51:32;;;;;;;3.28;2.00;;;;;;;39.08;31.00;100755.06;10273576;28;20576;-79
2022/06/23 15:56:40;;;;;;;4.15;1.63;;;;;;;38.76;29.12;100738.66;10270098;28;20043;-79
2022/06/23 16:01:45;;;;;;;5.72;1.85;;;;;;;39.44;29.40;100754.03;10262106;28;20043;-80
2022/06/23 16:06:48;;;;;;;3.67;1.83;;;;;;;39.34;29.36;100752.28;10263795;28;20074;-78
2022/06/23 16:11:52;;;;;;;5.97;1.73;;;;;;;39.08;30.08;100752.19;10245671;28;20053;-78
2022/06/23 16:16:57;;;;;;;4.68;1.80;;;;;;;38.71;29.16;100733.47;10276713;28;20118;-78
2022/06/23 16:22:10;;;;;;;4.45;2.53;;;;;;;38.42;29.32;100730.53;10269812;28;20071;-78
2022/06/23 16:27:16;;;;;;;8.90;2.15;;;;;;;37.75;31.21;100751.88;10282036;28;20035;-79
2022/06/23 16:32:30;;;;;;;1.83;1.73;;;;;;;36.54;30.32;100728.03;10316095;28;20042;-79
2022/06/23 16:37:44;;;;;;;4.47;2.03;;;;;;;35.44;33.28;100739.94;10305181;28;20031;-79
2022/06/23 16:43:16;;;;;;;3.55;1.52;;;;;;;34.52;35.51;100756.84;10293267;28;20081;-78
2022/06/23 16:48:26;;;;;;;3.67;1.75;;;;;;;33.64;36.85;100754.25;10268003;28;20096;-77
2022/06/23 16:54:08;;;;;;;4.22;1.80;;;;;;;33.43;38.85;100773.06;10287749;28;20546;-77
2022/06/23 16:59:47;;;;;;;2.35;1.83;;;;;;;32.69;38.66;100763.47;10277218;28;20122;-77
2022/06/23 17:05:30;;;;;;;2.45;1.80;;;;;;;32.19;38.86;100752.88;10277683;28;20073;-77
2022/06/23 17:10:40;;;;;;;3.67;1.90;;;;;;;31.70;39.82;100760.09;10304903;28;20053;-77
2022/06/23 17:15:45;;;;;;;5.28;2.13;;;;;;;31.03;41.52;100762.22;10278896;28;20073;-77
2022/06/23 17:20:54;;;;;;;7.10;2.83;;;;;;;30.61;42.61;100760.69;10270807;28;20075;-77
2022/06/23 17:25:59;;;;;;;2.72;1.60;;;;;;;30.16;43.94;100749.38;10286144;28;20062;-78
2022/06/23 17:31:13;;;;;;;2.03;1.80;;;;;;;29.97;44.67;100758.09;10272056;28;20043;-77
2022/06/23 17:36:34;;;;;;;6.40;2.60;;;;;;;29.72;44.35;100749.31;10285204;28;20617;-77
2022/06/23 17:48:00;;;;;;;5.95;1.85;;;;;;;29.21;44.71;100749.88;10283004;28;20081;-77
2022/06/23 17:53:03;;;;;;;1.92;1.52;;;;;;;29.04;45.82;100757.72;10247236;28;20050;-77
2022/06/23 17:58:08;;;;;;;4.60;1.45;;;;;;;28.82;44.97;100744.50;10249956;28;20066;-78
2022/06/23 18:03:32;;;;;;;3.67;1.35;;;;;;;28.62;46.27;100755.91;10272148;28;20039;-77
2022/06/23 18:08:36;;;;;;;1.77;1.45;;;;;;;28.50;47.76;100767.44;10266919;28;20468;-78
2022/06/23 18:13:49;;;;;;;3.00;1.60;;;;;;;28.32;47.76;100762.28;10274500;28;20039;-77
2022/06/23 18:19:10;;;;;;;5.55;1.27;;;;;;;28.17;48.35;100760.38;10262542;28;20077;-76
2022/06/23 18:24:24;;;;;;;3.88;2.00;;;;;;;28.02;47.78;100752.84;10279335;28;20392;-77
2022/06/23 18:29:47;;;;;;;4.53;1.50;;;;;;;27.89;48.01;100760.72;10269675;28;20126;-77
2022/06/23 18:35:12;;;;;;;4.32;1.45;;;;;;;27.71;49.34;100771.66;10250790;28;20063;-77
2022/06/23 18:40:50;;;;;;;3.20;1.58;;;;;;;27.41;49.54;100760.13;10263804;28;20039;-77
2022/06/23 18:45:52;;;;;;;4.53;1.80;;;;;;;27.29;50.91;100778.88;10275921;28;20446;-77
2022/06/23 18:50:59;;;;;;;2.03;1.50;;;;;;;27.06;50.74;100763.78;10266060;28;20046;-78
2022/06/23 18:56:00;;;;;;;;;;;;;;;26.96;51.35;100776.50;10295689;28;20031;-78
2022/06/23 19:01:09;;;;;;;4.05;1.67;;;;;;;26.71;51.23;100759.78;10270076;28;19957;-77
2022/06/23 19:06:15;;;;;;;4.85;1.60;;;;;;;26.44;52.29;100763.50;10272340;28;20039;-77
2022/06/23 19:11:43;;;;;;;2.53;1.65;;;;;;;26.35;53.74;100787.09;10275610;28;20054;-77
2022/06/23 19:16:50;;;;;;;4.25;1.58;;;;;;;26.15;54.88;100788.22;10292471;28;20047;-77
2022/06/23 19:22:18;;;;;;;4.97;2.50;;;;;;;25.89;56.23;100795.16;10283211;28;20191;-77
2022/06/23 19:27:45;;;;;;;4.47;2.40;;;;;;;25.56;56.98;100796.22;10284343;28;20053;-77
2022/06/23 19:32:55;;;;;;;;;;;;;;;25.29;58.25;100792.19;10274676;28;20051;-77
2022/06/23 19:38:04;;;;;;;4.57;2.33;;;;;;;25.02;59.42;100799.41;10259347;28;19929;-77
2022/06/23 19:43:07;;;;;;;4.53;2.72;;;;;;;24.84;60.06;100809.28;10288362;28;20043;-77
2022/06/23 19:48:11;;;;;;;5.72;2.85;;;;;;;24.66;60.76;100815.16;10287584;28;20068;-79
2022/06/23 19:53:28;;;;;;;9.38;2.92;;;;;;;24.54;61.82;100821.59;10268844;28;20043;-78
2022/06/23 19:58:44;;;;;;;4.60;2.88;;;;;;;24.38;61.32;100818.59;10278545;28;20064;-78
2022/06/23 20:03:56;;;;;;;13.63;3.03;;;;;;;24.24;62.38;100814.47;10264717;28;20046;-79
2022/06/23 20:09:08;;;;;;;5.80;3.17;;;;;;;24.07;61.64;100816.31;10277176;28;20038;-78
2022/06/23 20:14:19;;;;;;;3.50;2.05;;;;;;;23.94;61.50;100812.66;10284685;28;20038;-78
2022/06/23 20:19:21;;;;;;;8.88;2.65;;;;;;;23.75;62.28;100804.72;10259259;28;20031;-78
2022/06/23 20:24:36;;;;;;;3.95;2.33;;;;;;;23.62;61.44;100799.38;10278392;28;20038;-78
2022/06/23 20:29:59;;;;;;;7.05;2.65;;;;;;;23.53;61.35;100796.66;10306352;28;20098;-79
2022/06/23 20:35:02;;;;;;;6.82;2.58;;;;;;;23.40;62.79;100804.22;10287942;28;20047;-78
2022/06/23 20:40:35;;;;;;;5.85;3.03;;;;;;;23.21;63.46;100795.44;10269140;28;20516;-78
2022/06/23 20:45:56;;;;;;;7.90;2.30;;;;;;;23.06;63.62;100791.25;10253713;28;20038;-78
2022/06/23 20:51:10;;;;;;;3.72;2.03;;;;;;;22.83;64.70;100780.31;10279185;28;20042;-78
2022/06/23 20:56:11;;;;;;;3.08;1.70;;;;;;;22.77;63.61;100776.84;10235301;28;20700;-78
2022/06/23 21:01:16;;;;;;;3.80;2.15;;;;;;;22.68;64.37;100770.50;10270183;28;20051;-78
2022/06/23 21:06:26;;;;;;;2.38;1.50;;;;;;;22.48;62.88;100751.63;10281454;28;20030;-78
2022/06/23 21:11:29;;;;;;;4.30;1.70;;;;;;;22.49;61.89;100754.09;10258912;28;20045;-78
2022/06/23 21:16:52;;;;;;;6.88;1.67;;;;;;;22.31;61.65;100736.53;10285322;28;20046;-80
2022/06/23 21:22:05;;;;;;;2.42;1.50;;;;;;;22.38;61.36;100757.63;10284852;28;20049;-78
2022/06/23 21:27:15;;;;;;;8.55;2.05;;;;;;;22.32;61.81;100754.16;10271907;28;20049;-78
2022/06/23 21:32:26;;;;;;;6.25;1.95;;;;;;;22.21;61.49;100752.88;10284746;28;20101;-78
2022/06/23 21:37:29;;;;;;;6.35;2.17;;;;;;;22.12;61.70;100750.13;10283074;28;20057;-78
2022/06/23 21:42:48;;;;;;;4.72;1.95;;;;;;;22.00;61.29;100752.78;10290926;28;20039;-79
2022/06/23 21:48:00;;;;;;;6.70;3.10;;;;;;;21.91;60.95;100748.03;10259493;28;20477;-79
2022/06/23 21:53:20;;;;;;;72.15;57.13;;;;;;;21.75;61.31;100733.72;10286148;28;20046;-79
2022/06/23 21:58:41;;;;;;;5.43;1.75;;;;;;;21.80;60.09;100740.31;10280519;28;20094;-79
2022/06/23 22:03:46;;;;;;;3.03;1.98;;;;;;;21.73;60.73;100740.84;10260490;28;20046;-79
2022/06/23 22:08:55;;;;;;;1.88;1.15;;;;;;;21.61;61.62;100732.28;10234563;28;20055;-86
2022/06/23 22:13:58;;;;;;;3.60;1.67;;;;;;;21.46;62.67;100731.66;10246187;28;20042;-85
2022/06/23 22:19:16;;;;;;;2.50;1.70;;;;;;;21.02;63.17;100686.00;10259725;28;20030;-86
2022/06/23 22:30:26;;;;;;;4.60;1.80;;;;;;;20.98;65.46;100732.63;10246401;28;20381;-89
2022/06/23 22:35:30;;;;;;;2.42;1.52;;;;;;;20.83;65.39;100730.28;10264608;28;20039;-86
2022/06/23 22:40:32;;;;;;;3.55;1.63;;;;;;;20.29;66.15;100658.59;10258942;28;20053;-86
2022/06/23 22:45:53;;;;;;;6.78;1.75;;;;;;;20.59;66.11;100714.81;10277848;28;20057;-84
2022/06/23 22:50:58;;;;;;;2.17;1.63;;;;;;;20.50;66.92;100719.50;10311598;28;20073;-85
2022/06/23 22:56:00;;;;;;;2.28;1.42;;;;;;;20.39;67.51;100718.19;10272954;28;20042;-86
2022/06/23 23:01:13;;;;;;;3.35;1.67;;;;;;;20.25;68.49;100713.50;10244444;28;20050;-84
2022/06/23 23:06:38;;;;;;;3.25;2.00;;;;;;;20.13;70.13;100710.50;10266045;28;20065;-86
2022/06/23 23:11:39;;;;;;;2.65;1.65;;;;;;;20.04;68.78;100716.06;10251244;28;20030;-85
2022/06/23 23:16:42;;;;;;;3.20;2.20;;;;;;;20.00;69.44;100709.47;10271115;28;20041;-86
2022/06/23 23:21:44;;;;;;;4.85;1.80;;;;;;;19.84;70.20;100686.72;10233371;28;20043;-85
2022/06/23 23:26:50;;;;;;;5.97;2.20;;;;;;;19.94;69.44;100691.19;10228975;28;20031;-86
2022/06/23 23:32:27;;;;;;;5.47;2.17;;;;;;;19.92;70.70;100699.09;10248971;28;20043;-86
2022/06/23 23:37:31;;;;;;;4.97;2.00;;;;;;;19.86;71.51;100694.78;10250517;28;20035;-85
2022/06/23 23:42:32;;;;;;;3.75;2.10;;;;;;;19.76;72.04;100690.28;10275674;28;20047;-85
2022/06/23 23:47:43;;;;;;;4.35;2.40;;;;;;;19.63;72.27;100677.22;10279582;28;20034;-85
2022/06/23 23:52:45;;;;;;;8.07;2.45;;;;;;;19.61;73.32;100677.53;10268281;28;20057;-85
2022/06/23 23:57:49;;;;;;;5.50;2.60;;;;;;;19.60;73.59;100672.28;10284870;28;20069;-84
